Helena, GA

09:52 EDT le 01 novembre 2014 (GMT -0400)
RAWS MCRAE GA US | Change Station
CLOSE
Current Station
Stations météorologiques personnelles
Location: McRae, GA
Altitude: 201 ft
Stations météo à proximité
Avis météorologiques actifs: Wind Advisory

Alt. 201 ft 32.09 °N, 82.88 °W | Updated 49 minutes ago

Partiellement nuageux
Partiellement nuageux
43 ° F
Paraît 38 ° F
N
9
Vent Variable Vent de Ouest
Gusts 20.0 mph

Aujourd'hui
Haut(e) -- | Bas -- ° F
--% Risque de précip.
Hier
Haut(e) -- | Bas -- ° F
Precip. -- pouce
7:48 AM 6:41 PM
Lune gibbeuse croissante, 66% visible
Pression 29.98 pouce
Visibilité 10.0 Miles terrestres
Nuages Ciel dégagé
Refroidissement éolien 38 ° F
Point de rosée 28 ° F
Humidité 56%
Précipitations 0.00 pouce
Profondeur de la couche neigeuse Non disponible.
UV 1 sur 12
Pollen 2.60 sur 12
Qualité de l'air Non disponible.
Flu Activity Non disponible.
METAR KEZM 011335Z AUTO 30009G20KT 270V330 10SM CLR 06/M01 A2998 RMK AO2 T00591006

More Conditions Fewer Conditions

Pression 29.98 pouce
Visibilité 10.0 Miles terrestres
Nuages Ciel dégagé
Refroidissement éolien 38 ° F
Point de rosée 28 ° F
Humidité 56%
Précipitations 0.00 pouce
Profondeur de la couche neigeuse Non disponible.
UV 1 sur 12
Pollen 2.60 sur 12
Qualité de l'air Non disponible.
Flu Activity Non disponible.
METAR KEZM 011335Z AUTO 30009G20KT 270V330 10SM CLR 06/M01 A2998 RMK AO2 T00591006

More Conditions Fewer Conditions

10-Day Weather Forecast

Almanac

Astronomie

Nov. 01, 2014 Lever Coucher
Temps réel
Crépuscule civil
Crépuscule nautique
Crépuscule astronomique
Lune
Durée de lumière visible
Longueur du jour
Tomorrow will be .
, % of the Moon is Illuminated

Extrêmes aujourd'hui

State Highs State Lows

Community

WunderPhotos

Upload Photos

1,766,937 Photos téléchargées !

WunderBlogs® & News

Nearby

Qualité de l'air

  Qualité de l'air Indice de la qualité de l'air Polluant
Not available.

Épaisseur de neige

Station Depth Altitude

Activité sismique

Ville Distance Mag. Time & Date
Minimum magnitude displayed is 2.5.

Températures des eaux côtières

Lieu Température

Stations météo à proximité